sensor_id;sensor_type;location;lat;lon;timestamp;pressure;altitude;pressure_sealevel;temperature;humidity
63956;BME280;50131;52.084;5.228;2022-08-21T00:01:28;101797.0;;;16.62;81.83
63956;BME280;50131;52.084;5.228;2022-08-21T00:03:08;101797.0;;;16.59;82.0
63956;BME280;50131;52.084;5.228;2022-08-21T00:04:46;101796.0;;;16.52;82.51
63956;BME280;50131;52.084;5.228;2022-08-21T00:08:01;101796.0;;;16.53;82.92
63956;BME280;50131;52.084;5.228;2022-08-21T00:09:39;101790.0;;;16.61;83.12
63956;BME280;50131;52.084;5.228;2022-08-21T00:11:16;101791.0;;;16.64;83.4
63956;BME280;50131;52.084;5.228;2022-08-21T00:12:54;101794.0;;;16.65;83.51
63956;BME280;50131;52.084;5.228;2022-08-21T00:16:09;101799.0;;;16.63;83.52
63956;BME280;50131;52.084;5.228;2022-08-21T00:17:46;101794.0;;;16.72;83.63
63956;BME280;50131;52.084;5.228;2022-08-21T00:19:25;101796.0;;;16.59;83.35
63956;BME280;50131;52.084;5.228;2022-08-21T00:22:40;101798.0;;;16.57;84.17
63956;BME280;50131;52.084;5.228;2022-08-21T00:24:17;101794.0;;;16.59;83.77
63956;BME280;50131;52.084;5.228;2022-08-21T00:25:54;101792.0;;;16.7;83.47
63956;BME280;50131;52.084;5.228;2022-08-21T00:27:30;101787.0;;;16.75;83.42
63956;BME280;50131;52.084;5.228;2022-08-21T00:30:43;101786.0;;;16.66;83.99
63956;BME280;50131;52.084;5.228;2022-08-21T00:32:21;101782.0;;;16.64;84.92
63956;BME280;50131;52.084;5.228;2022-08-21T00:33:59;101780.0;;;16.64;85.66
63956;BME280;50131;52.084;5.228;2022-08-21T00:37:17;101778.0;;;16.68;84.53
63956;BME280;50131;52.084;5.228;2022-08-21T00:38:54;101777.0;;;16.68;83.76
63956;BME280;50131;52.084;5.228;2022-08-21T00:40:34;101774.0;;;16.75;83.49
63956;BME280;50131;52.084;5.228;2022-08-21T00:42:15;101773.0;;;16.59;84.16
63956;BME280;50131;52.084;5.228;2022-08-21T00:45:31;101776.0;;;16.66;84.81
63956;BME280;50131;52.084;5.228;2022-08-21T00:47:09;101778.0;;;16.72;83.55
63956;BME280;50131;52.084;5.228;2022-08-21T00:48:46;101775.0;;;16.77;83.51
63956;BME280;50131;52.084;5.228;2022-08-21T00:52:07;101776.0;;;16.84;83.56
63956;BME280;50131;52.084;5.228;2022-08-21T00:53:46;101776.0;;;16.71;85.14
63956;BME280;50131;52.084;5.228;2022-08-21T00:55:23;101774.0;;;16.73;85.32
63956;BME280;50131;52.084;5.228;2022-08-21T01:00:28;101774.0;;;16.73;85.1
63956;BME280;50131;52.084;5.228;2022-08-21T01:02:07;101771.0;;;16.72;85.0
63956;BME280;50131;52.084;5.228;2022-08-21T01:03:46;101774.0;;;16.7;85.17
63956;BME280;50131;52.084;5.228;2022-08-21T01:05:23;101780.0;;;16.59;85.22
63956;BME280;50131;52.084;5.228;2022-08-21T01:08:37;101780.0;;;16.66;85.43
63956;BME280;50131;52.084;5.228;2022-08-21T01:10:15;101777.0;;;16.61;83.48
63956;BME280;50131;52.084;5.228;2022-08-21T01:11:52;101774.0;;;16.61;84.42
63956;BME280;50131;52.084;5.228;2022-08-21T01:13:32;101774.0;;;16.68;85.26
63956;BME280;50131;52.084;5.228;2022-08-21T01:18:30;101771.0;;;16.7;85.26
63956;BME280;50131;52.084;5.228;2022-08-21T01:20:11;101772.0;;;16.75;84.88
63956;BME280;50131;52.084;5.228;2022-08-21T01:23:24;101772.0;;;16.7;83.8
63956;BME280;50131;52.084;5.228;2022-08-21T01:25:03;101772.0;;;16.55;82.9
63956;BME280;50131;52.084;5.228;2022-08-21T01:26:42;101780.0;;;16.52;82.86
63956;BME280;50131;52.084;5.228;2022-08-21T01:28:19;101781.0;;;16.45;82.74
63956;BME280;50131;52.084;5.228;2022-08-21T01:31:44;101777.0;;;16.39;82.74
63956;BME280;50131;52.084;5.228;2022-08-21T01:35:00;101780.0;;;16.5;83.59
63956;BME280;50131;52.084;5.228;2022-08-21T01:39:53;101776.0;;;16.52;84.42
63956;BME280;50131;52.084;5.228;2022-08-21T01:41:29;101771.0;;;16.68;83.92
63956;BME280;50131;52.084;5.228;2022-08-21T01:43:06;101770.0;;;16.52;85.3
63956;BME280;50131;52.084;5.228;2022-08-21T01:46:20;101769.0;;;16.56;85.07
63956;BME280;50131;52.084;5.228;2022-08-21T01:47:56;101770.0;;;16.59;84.37
63956;BME280;50131;52.084;5.228;2022-08-21T01:49:33;101764.0;;;16.5;84.29
63956;BME280;50131;52.084;5.228;2022-08-21T01:51:10;101768.0;;;16.59;84.15
63956;BME280;50131;52.084;5.228;2022-08-21T01:54:25;101769.0;;;16.62;84.46
63956;BME280;50131;52.084;5.228;2022-08-21T01:56:03;101768.0;;;16.61;84.33
63956;BME280;50131;52.084;5.228;2022-08-21T01:57:42;101765.0;;;16.53;84.53
63956;BME280;50131;52.084;5.228;2022-08-21T02:00:58;101767.0;;;16.4;86.18
63956;BME280;50131;52.084;5.228;2022-08-21T02:02:34;101762.0;;;16.38;84.52
63956;BME280;50131;52.084;5.228;2022-08-21T02:04:11;101759.0;;;16.36;85.74
63956;BME280;50131;52.084;5.228;2022-08-21T02:09:02;101758.0;;;16.36;84.13
63956;BME280;50131;52.084;5.228;2022-08-21T02:10:41;101760.0;;;16.34;83.83
63956;BME280;50131;52.084;5.228;2022-08-21T02:12:17;101755.0;;;16.4;84.44
63956;BME280;50131;52.084;5.228;2022-08-21T02:15:30;101761.0;;;16.36;83.44
63956;BME280;50131;52.084;5.228;2022-08-21T02:17:07;101756.0;;;16.39;85.18
63956;BME280;50131;52.084;5.228;2022-08-21T02:18:43;101760.0;;;16.36;84.75
63956;BME280;50131;52.084;5.228;2022-08-21T02:25:16;101750.0;;;16.29;86.8
63956;BME280;50131;52.084;5.228;2022-08-21T02:26:54;101747.0;;;16.29;86.7
63956;BME280;50131;52.084;5.228;2022-08-21T02:30:10;101748.0;;;16.34;85.89
63956;BME280;50131;52.084;5.228;2022-08-21T02:31:47;101747.0;;;16.3;86.19
63956;BME280;50131;52.084;5.228;2022-08-21T02:33:24;101745.0;;;16.31;86.51
63956;BME280;50131;52.084;5.228;2022-08-21T02:36:39;101745.0;;;16.22;86.37
63956;BME280;50131;52.084;5.228;2022-08-21T02:41:36;101741.0;;;16.2;86.39
63956;BME280;50131;52.084;5.228;2022-08-21T02:46:27;101734.0;;;16.18;86.48
63956;BME280;50131;52.084;5.228;2022-08-21T02:48:06;101736.0;;;16.18;85.52
63956;BME280;50131;52.084;5.228;2022-08-21T02:49:44;101736.0;;;16.28;84.78
63956;BME280;50131;52.084;5.228;2022-08-21T02:52:58;101739.0;;;16.11;85.42
63956;BME280;50131;52.084;5.228;2022-08-21T02:56:16;101740.0;;;16.11;85.41
63956;BME280;50131;52.084;5.228;2022-08-21T02:59:34;101737.0;;;16.05;85.04
63956;BME280;50131;52.084;5.228;2022-08-21T03:02:48;101733.0;;;16.12;86.67
63956;BME280;50131;52.084;5.228;2022-08-21T03:04:25;101728.0;;;16.11;87.23
63956;BME280;50131;52.084;5.228;2022-08-21T03:07:42;101730.0;;;16.18;86.01
63956;BME280;50131;52.084;5.228;2022-08-21T03:09:19;101730.0;;;16.15;85.11
63956;BME280;50131;52.084;5.228;2022-08-21T03:10:55;101725.0;;;16.13;85.15
63956;BME280;50131;52.084;5.228;2022-08-21T03:14:09;101726.0;;;15.98;86.41
63956;BME280;50131;52.084;5.228;2022-08-21T03:15:46;101722.0;;;15.97;85.33
63956;BME280;50131;52.084;5.228;2022-08-21T03:17:23;101722.0;;;16.0;85.49
63956;BME280;50131;52.084;5.228;2022-08-21T03:19:00;101720.0;;;15.99;84.71
63956;BME280;50131;52.084;5.228;2022-08-21T03:22:17;101718.0;;;15.88;85.29
63956;BME280;50131;52.084;5.228;2022-08-21T03:23:54;101714.0;;;15.87;87.37
63956;BME280;50131;52.084;5.228;2022-08-21T03:25:33;101720.0;;;15.89;86.4
63956;BME280;50131;52.084;5.228;2022-08-21T03:32:04;101719.0;;;15.81;86.0
63956;BME280;50131;52.084;5.228;2022-08-21T03:33:41;101713.0;;;15.87;86.97
63956;BME280;50131;52.084;5.228;2022-08-21T03:36:56;101716.0;;;15.81;88.32
63956;BME280;50131;52.084;5.228;2022-08-21T03:38:34;101712.0;;;15.78;87.01
63956;BME280;50131;52.084;5.228;2022-08-21T03:40:14;101714.0;;;15.77;86.72
63956;BME280;50131;52.084;5.228;2022-08-21T03:43:29;101713.0;;;15.79;86.33
63956;BME280;50131;52.084;5.228;2022-08-21T03:45:07;101713.0;;;15.81;88.19
63956;BME280;50131;52.084;5.228;2022-08-21T03:48:21;101714.0;;;15.81;87.64
63956;BME280;50131;52.084;5.228;2022-08-21T03:51:36;101713.0;;;15.92;86.74
63956;BME280;50131;52.084;5.228;2022-08-21T03:53:14;101714.0;;;15.83;86.57
63956;BME280;50131;52.084;5.228;2022-08-21T03:54:51;101711.0;;;15.89;87.51
63956;BME280;50131;52.084;5.228;2022-08-21T03:58:06;101709.0;;;15.79;88.38
63956;BME280;50131;52.084;5.228;2022-08-21T03:59:43;101710.0;;;15.82;87.72
63956;BME280;50131;52.084;5.228;2022-08-21T04:01:20;101703.0;;;15.76;87.85
63956;BME280;50131;52.084;5.228;2022-08-21T04:02:56;101711.0;;;15.73;86.82
63956;BME280;50131;52.084;5.228;2022-08-21T04:06:10;101705.0;;;15.71;85.98
63956;BME280;50131;52.084;5.228;2022-08-21T04:07:46;101700.0;;;15.73;86.23
63956;BME280;50131;52.084;5.228;2022-08-21T04:09:25;101706.0;;;15.73;85.41
63956;BME280;50131;52.084;5.228;2022-08-21T04:12:39;101706.0;;;15.67;85.6
63956;BME280;50131;52.084;5.228;2022-08-21T04:14:15;101708.0;;;15.67;86.71
63956;BME280;50131;52.084;5.228;2022-08-21T04:15:53;101709.0;;;15.71;87.04
63956;BME280;50131;52.084;5.228;2022-08-21T04:22:24;101711.0;;;15.85;85.99
63956;BME280;50131;52.084;5.228;2022-08-21T04:24:00;101713.0;;;15.74;84.86
63956;BME280;50131;52.084;5.228;2022-08-21T04:27:13;101712.0;;;15.74;85.0
63956;BME280;50131;52.084;5.228;2022-08-21T04:28:49;101716.0;;;15.79;84.91
63956;BME280;50131;52.084;5.228;2022-08-21T04:30:26;101715.0;;;15.62;86.8
63956;BME280;50131;52.084;5.228;2022-08-21T04:33:40;101712.0;;;15.6;86.9
63956;BME280;50131;52.084;5.228;2022-08-21T04:38:32;101715.0;;;15.5;87.41
63956;BME280;50131;52.084;5.228;2022-08-21T04:41:49;101721.0;;;15.52;86.58
63956;BME280;50131;52.084;5.228;2022-08-21T04:43:25;101718.0;;;15.48;86.23
63956;BME280;50131;52.084;5.228;2022-08-21T04:45:02;101721.0;;;15.43;85.91
63956;BME280;50131;52.084;5.228;2022-08-21T04:48:18;101722.0;;;15.38;85.89
63956;BME280;50131;52.084;5.228;2022-08-21T04:49:55;101723.0;;;15.33;85.89
63956;BME280;50131;52.084;5.228;2022-08-21T04:51:34;101723.0;;;15.29;86.19
63956;BME280;50131;52.084;5.228;2022-08-21T04:53:15;101726.0;;;15.26;86.41
63956;BME280;50131;52.084;5.228;2022-08-21T04:56:33;101724.0;;;15.26;86.44
63956;BME280;50131;52.084;5.228;2022-08-21T04:58:19;101724.0;;;15.17;86.79
63956;BME280;50131;52.084;5.228;2022-08-21T04:59:56;101730.0;;;15.23;87.44
63956;BME280;50131;52.084;5.228;2022-08-21T05:01:35;101730.0;;;15.29;88.04
63956;BME280;50131;52.084;5.228;2022-08-21T05:04:54;101733.0;;;15.24;88.54
63956;BME280;50131;52.084;5.228;2022-08-21T05:06:33;101738.0;;;15.23;88.04
63956;BME280;50131;52.084;5.228;2022-08-21T05:08:15;101737.0;;;15.31;88.67
63956;BME280;50131;52.084;5.228;2022-08-21T05:09:55;101737.0;;;15.37;88.38
63956;BME280;50131;52.084;5.228;2022-08-21T05:13:10;101740.0;;;15.32;88.59
63956;BME280;50131;52.084;5.228;2022-08-21T05:14:48;101742.0;;;15.39;89.62
63956;BME280;50131;52.084;5.228;2022-08-21T05:16:25;101745.0;;;15.47;88.86
63956;BME280;50131;52.084;5.228;2022-08-21T05:19:40;101749.0;;;15.53;88.99
63956;BME280;50131;52.084;5.228;2022-08-21T05:21:16;101745.0;;;15.65;88.77
63956;BME280;50131;52.084;5.228;2022-08-21T05:22:53;101743.0;;;15.7;88.04
63956;BME280;50131;52.084;5.228;2022-08-21T05:24:30;101747.0;;;15.69;88.11
63956;BME280;50131;52.084;5.228;2022-08-21T05:29:20;101749.0;;;15.71;87.81
63956;BME280;50131;52.084;5.228;2022-08-21T05:30:57;101745.0;;;15.68;88.01
63956;BME280;50131;52.084;5.228;2022-08-21T05:34:12;101748.0;;;15.84;87.74
63956;BME280;50131;52.084;5.228;2022-08-21T05:35:49;101748.0;;;15.9;87.27
63956;BME280;50131;52.084;5.228;2022-08-21T05:37:27;101752.0;;;15.94;87.27
63956;BME280;50131;52.084;5.228;2022-08-21T05:40:40;101751.0;;;15.95;87.17
63956;BME280;50131;52.084;5.228;2022-08-21T05:42:17;101749.0;;;15.89;87.06
63956;BME280;50131;52.084;5.228;2022-08-21T05:45:32;101750.0;;;16.09;87.48
63956;BME280;50131;52.084;5.228;2022-08-21T05:48:46;101751.0;;;16.05;86.98
63956;BME280;50131;52.084;5.228;2022-08-21T05:50:23;101752.0;;;16.11;86.89
63956;BME280;50131;52.084;5.228;2022-08-21T05:52:00;101746.0;;;16.18;87.19
63956;BME280;50131;52.084;5.228;2022-08-21T05:55:15;101748.0;;;16.25;86.23
63956;BME280;50131;52.084;5.228;2022-08-21T05:56:51;101748.0;;;16.27;86.08
63956;BME280;50131;52.084;5.228;2022-08-21T05:58:27;101749.0;;;16.27;86.28
63956;BME280;50131;52.084;5.228;2022-08-21T06:00:04;101745.0;;;16.37;86.02
63956;BME280;50131;52.084;5.228;2022-08-21T06:03:22;101745.0;;;16.36;86.12
63956;BME280;50131;52.084;5.228;2022-08-21T06:05:00;101741.0;;;16.43;86.02
63956;BME280;50131;52.084;5.228;2022-08-21T06:06:37;101741.0;;;16.5;85.77
63956;BME280;50131;52.084;5.228;2022-08-21T06:09:50;101743.0;;;16.52;85.61
63956;BME280;50131;52.084;5.228;2022-08-21T06:11:27;101738.0;;;16.55;86.63
63956;BME280;50131;52.084;5.228;2022-08-21T06:13:04;101735.0;;;16.65;85.54
63956;BME280;50131;52.084;5.228;2022-08-21T06:14:41;101738.0;;;16.73;85.39
63956;BME280;50131;52.084;5.228;2022-08-21T06:17:54;101737.0;;;16.82;85.44
63956;BME280;50131;52.084;5.228;2022-08-21T06:19:32;101737.0;;;16.91;85.28
63956;BME280;50131;52.084;5.228;2022-08-21T06:21:09;101742.0;;;16.95;85.25
63956;BME280;50131;52.084;5.228;2022-08-21T06:24:22;101738.0;;;16.95;85.31
63956;BME280;50131;52.084;5.228;2022-08-21T06:26:00;101738.0;;;17.05;85.01
63956;BME280;50131;52.084;5.228;2022-08-21T06:27:37;101738.0;;;17.11;85.0
63956;BME280;50131;52.084;5.228;2022-08-21T06:30:53;101737.0;;;17.22;84.87
63956;BME280;50131;52.084;5.228;2022-08-21T06:32:30;101739.0;;;17.3;84.87
63956;BME280;50131;52.084;5.228;2022-08-21T06:34:07;101739.0;;;17.38;84.7
63956;BME280;50131;52.084;5.228;2022-08-21T06:35:44;101741.0;;;17.5;84.44
63956;BME280;50131;52.084;5.228;2022-08-21T06:38:58;101743.0;;;17.52;84.29
63956;BME280;50131;52.084;5.228;2022-08-21T06:40:34;101737.0;;;17.55;83.95
63956;BME280;50131;52.084;5.228;2022-08-21T06:42:13;101736.0;;;17.62;84.21
63956;BME280;50131;52.084;5.228;2022-08-21T06:45:27;101736.0;;;17.7;83.87
63956;BME280;50131;52.084;5.228;2022-08-21T06:47:04;101741.0;;;17.8;83.76
63956;BME280;50131;52.084;5.228;2022-08-21T06:48:41;101735.0;;;17.91;83.55
63956;BME280;50131;52.084;5.228;2022-08-21T06:50:17;101734.0;;;17.97;83.39
63956;BME280;50131;52.084;5.228;2022-08-21T06:53:32;101733.0;;;18.02;83.2
63956;BME280;50131;52.084;5.228;2022-08-21T06:55:12;101736.0;;;18.12;83.03
63956;BME280;50131;52.084;5.228;2022-08-21T06:56:49;101739.0;;;18.18;82.65
63956;BME280;50131;52.084;5.228;2022-08-21T07:00:05;101734.0;;;18.25;82.41
63956;BME280;50131;52.084;5.228;2022-08-21T07:01:43;101732.0;;;18.36;83.03
63956;BME280;50131;52.084;5.228;2022-08-21T07:03:23;101738.0;;;18.43;82.72
63956;BME280;50131;52.084;5.228;2022-08-21T07:05:01;101737.0;;;18.45;82.04
63956;BME280;50131;52.084;5.228;2022-08-21T07:08:15;101738.0;;;18.56;81.81
63956;BME280;50131;52.084;5.228;2022-08-21T07:09:52;101734.0;;;18.66;82.62
63956;BME280;50131;52.084;5.228;2022-08-21T07:11:28;101730.0;;;18.68;81.81
63956;BME280;50131;52.084;5.228;2022-08-21T07:14:42;101733.0;;;18.78;81.22
63956;BME280;50131;52.084;5.228;2022-08-21T07:16:19;101734.0;;;18.82;80.98
63956;BME280;50131;52.084;5.228;2022-08-21T07:17:57;101726.0;;;18.96;81.37
63956;BME280;50131;52.084;5.228;2022-08-21T07:19:34;101730.0;;;18.95;80.48
63956;BME280;50131;52.084;5.228;2022-08-21T07:22:47;101725.0;;;19.02;80.62
63956;BME280;50131;52.084;5.228;2022-08-21T07:24:23;101727.0;;;19.09;80.67
63956;BME280;50131;52.084;5.228;2022-08-21T07:26:00;101730.0;;;19.21;80.56
63956;BME280;50131;52.084;5.228;2022-08-21T07:29:13;101730.0;;;19.39;80.61
63956;BME280;50131;52.084;5.228;2022-08-21T07:30:52;101725.0;;;19.47;80.24
63956;BME280;50131;52.084;5.228;2022-08-21T07:32:29;101728.0;;;19.59;80.47
63956;BME280;50131;52.084;5.228;2022-08-21T07:35:44;101731.0;;;19.62;79.53
63956;BME280;50131;52.084;5.228;2022-08-21T07:37:20;101732.0;;;19.64;78.86
63956;BME280;50131;52.084;5.228;2022-08-21T07:38:58;101735.0;;;19.79;79.47
63956;BME280;50131;52.084;5.228;2022-08-21T07:40:35;101739.0;;;19.86;79.11
63956;BME280;50131;52.084;5.228;2022-08-21T07:43:47;101741.0;;;19.91;77.66
63956;BME280;50131;52.084;5.228;2022-08-21T07:45:25;101740.0;;;19.96;77.7
63956;BME280;50131;52.084;5.228;2022-08-21T07:47:03;101739.0;;;19.98;77.69
63956;BME280;50131;52.084;5.228;2022-08-21T07:50:18;101743.0;;;20.02;77.41
63956;BME280;50131;52.084;5.228;2022-08-21T07:51:55;101739.0;;;20.03;77.12
63956;BME280;50131;52.084;5.228;2022-08-21T07:53:31;101741.0;;;20.11;77.22
63956;BME280;50131;52.084;5.228;2022-08-21T07:55:09;101743.0;;;20.18;77.44
63956;BME280;50131;52.084;5.228;2022-08-21T07:58:23;101742.0;;;20.36;77.41
63956;BME280;50131;52.084;5.228;2022-08-21T08:00:00;101736.0;;;20.41;78.41
63956;BME280;50131;52.084;5.228;2022-08-21T08:01:36;101738.0;;;20.48;77.33
63956;BME280;50131;52.084;5.228;2022-08-21T08:04:50;101736.0;;;20.53;76.64
63956;BME280;50131;52.084;5.228;2022-08-21T08:06:27;101734.0;;;20.47;75.61
63956;BME280;50131;52.084;5.228;2022-08-21T08:08:04;101730.0;;;20.45;76.13
63956;BME280;50131;52.084;5.228;2022-08-21T08:11:17;101730.0;;;20.5;75.55
63956;BME280;50131;52.084;5.228;2022-08-21T08:12:54;101726.0;;;20.66;76.02
63956;BME280;50131;52.084;5.228;2022-08-21T08:14:32;101719.0;;;20.58;75.53
63956;BME280;50131;52.084;5.228;2022-08-21T08:16:09;101724.0;;;20.6;76.12
63956;BME280;50131;52.084;5.228;2022-08-21T08:19:24;101724.0;;;20.63;74.91
63956;BME280;50131;52.084;5.228;2022-08-21T08:21:01;101725.0;;;20.57;74.73
63956;BME280;50131;52.084;5.228;2022-08-21T08:22:39;101726.0;;;20.61;74.58
63956;BME280;50131;52.084;5.228;2022-08-21T08:25:52;101727.0;;;20.72;74.78
63956;BME280;50131;52.084;5.228;2022-08-21T08:27:30;101726.0;;;20.74;75.12
63956;BME280;50131;52.084;5.228;2022-08-21T08:29:08;101726.0;;;20.8;75.11
63956;BME280;50131;52.084;5.228;2022-08-21T08:30:45;101725.0;;;20.81;74.58
63956;BME280;50131;52.084;5.228;2022-08-21T08:33:59;101723.0;;;20.99;74.97
63956;BME280;50131;52.084;5.228;2022-08-21T08:35:36;101720.0;;;21.11;74.34
63956;BME280;50131;52.084;5.228;2022-08-21T08:37:13;101722.0;;;21.17;73.89
63956;BME280;50131;52.084;5.228;2022-08-21T08:40:31;101725.0;;;21.25;74.39
63956;BME280;50131;52.084;5.228;2022-08-21T08:42:23;101724.0;;;21.22;72.81
63956;BME280;50131;52.084;5.228;2022-08-21T08:44:06;101730.0;;;21.2;73.17
63956;BME280;50131;52.084;5.228;2022-08-21T08:45:48;101730.0;;;21.2;73.16
63956;BME280;50131;52.084;5.228;2022-08-21T08:47:27;101725.0;;;21.13;72.91
63956;BME280;50131;52.084;5.228;2022-08-21T08:50:52;101723.0;;;21.17;73.36
63956;BME280;50131;52.084;5.228;2022-08-21T08:52:35;101719.0;;;21.24;72.8
63956;BME280;50131;52.084;5.228;2022-08-21T08:54:17;101721.0;;;21.27;73.3
63956;BME280;50131;52.084;5.228;2022-08-21T08:55:57;101716.0;;;21.4;72.86
63956;BME280;50131;52.084;5.228;2022-08-21T08:59:23;101714.0;;;21.54;73.39
63956;BME280;50131;52.084;5.228;2022-08-21T09:01:08;101713.0;;;21.57;72.19
63956;BME280;50131;52.084;5.228;2022-08-21T09:02:54;101709.0;;;21.52;70.91
63956;BME280;50131;52.084;5.228;2022-08-21T09:04:31;101708.0;;;21.52;70.49
63956;BME280;50131;52.084;5.228;2022-08-21T09:08:20;101709.0;;;21.52;71.11
63956;BME280;50131;52.084;5.228;2022-08-21T09:10:12;101715.0;;;21.51;71.11
63956;BME280;50131;52.084;5.228;2022-08-21T09:11:59;101712.0;;;21.54;70.99
63956;BME280;50131;52.084;5.228;2022-08-21T09:13:48;101709.0;;;21.53;71.23
63956;BME280;50131;52.084;5.228;2022-08-21T09:15:32;101710.0;;;21.5;70.69
63956;BME280;50131;52.084;5.228;2022-08-21T09:17:19;101709.0;;;21.53;70.98
63956;BME280;50131;52.084;5.228;2022-08-21T09:19:26;101711.0;;;21.57;71.28
63956;BME280;50131;52.084;5.228;2022-08-21T09:21:19;101711.0;;;21.67;70.11
63956;BME280;50131;52.084;5.228;2022-08-21T09:23:11;101711.0;;;21.64;69.84
63956;BME280;50131;52.084;5.228;2022-08-21T09:26:48;101711.0;;;21.8;70.61
63956;BME280;50131;52.084;5.228;2022-08-21T09:28:34;101711.0;;;21.86;69.8
63956;BME280;50131;52.084;5.228;2022-08-21T09:30:12;101707.0;;;21.95;69.16
63956;BME280;50131;52.084;5.228;2022-08-21T09:31:49;101711.0;;;22.06;69.44
63956;BME280;50131;52.084;5.228;2022-08-21T09:33:26;101705.0;;;22.2;69.08
63956;BME280;50131;52.084;5.228;2022-08-21T09:38:29;101705.0;;;22.36;67.6
63956;BME280;50131;52.084;5.228;2022-08-21T09:40:26;101712.0;;;22.48;67.69
63956;BME280;50131;52.084;5.228;2022-08-21T09:42:07;101711.0;;;22.58;66.92
63956;BME280;50131;52.084;5.228;2022-08-21T09:45:30;101710.0;;;22.63;65.58
63956;BME280;50131;52.084;5.228;2022-08-21T09:47:09;101712.0;;;22.75;65.8
63956;BME280;50131;52.084;5.228;2022-08-21T09:48:48;101710.0;;;22.83;65.86
63956;BME280;50131;52.084;5.228;2022-08-21T09:50:27;101703.0;;;22.9;64.69
63956;BME280;50131;52.084;5.228;2022-08-21T09:54:13;101702.0;;;23.05;65.78
63956;BME280;50131;52.084;5.228;2022-08-21T09:58:46;101710.0;;;23.27;62.89
63956;BME280;50131;52.084;5.228;2022-08-21T10:02:24;101707.0;;;23.33;64.86
63956;BME280;50131;52.084;5.228;2022-08-21T10:04:03;101702.0;;;23.37;62.89
63956;BME280;50131;52.084;5.228;2022-08-21T10:05:54;101698.0;;;23.54;62.72
63956;BME280;50131;52.084;5.228;2022-08-21T10:07:32;101700.0;;;23.59;62.38
63956;BME280;50131;52.084;5.228;2022-08-21T10:09:14;101699.0;;;23.64;61.59
63956;BME280;50131;52.084;5.228;2022-08-21T10:12:48;101696.0;;;23.62;61.15
63956;BME280;50131;52.084;5.228;2022-08-21T10:14:42;101695.0;;;23.75;62.27
63956;BME280;50131;52.084;5.228;2022-08-21T10:16:42;101697.0;;;23.9;62.45
63956;BME280;50131;52.084;5.228;2022-08-21T10:18:35;101702.0;;;23.95;59.96
63956;BME280;50131;52.084;5.228;2022-08-21T10:20:20;101698.0;;;23.95;59.26
63956;BME280;50131;52.084;5.228;2022-08-21T10:22:06;101703.0;;;23.87;60.18
63956;BME280;50131;52.084;5.228;2022-08-21T10:23:58;101700.0;;;23.85;58.57
63956;BME280;50131;52.084;5.228;2022-08-21T10:27:32;101699.0;;;23.83;59.05
63956;BME280;50131;52.084;5.228;2022-08-21T10:29:23;101694.0;;;23.78;58.9
63956;BME280;50131;52.084;5.228;2022-08-21T10:31:24;101690.0;;;23.87;57.65
63956;BME280;50131;52.084;5.228;2022-08-21T10:33:14;101691.0;;;23.96;58.18
63956;BME280;50131;52.084;5.228;2022-08-21T10:35:04;101692.0;;;23.98;57.82
63956;BME280;50131;52.084;5.228;2022-08-21T10:36:52;101691.0;;;23.76;55.85
63956;BME280;50131;52.084;5.228;2022-08-21T10:38:55;101692.0;;;23.73;56.48
63956;BME280;50131;52.084;5.228;2022-08-21T10:40:36;101682.0;;;23.78;58.16
63956;BME280;50131;52.084;5.228;2022-08-21T10:44:17;101677.0;;;23.95;57.74
63956;BME280;50131;52.084;5.228;2022-08-21T10:46:05;101676.0;;;23.96;56.75
63956;BME280;50131;52.084;5.228;2022-08-21T10:47:55;101670.0;;;23.89;56.55
63956;BME280;50131;52.084;5.228;2022-08-21T10:49:40;101669.0;;;24.01;57.13
63956;BME280;50131;52.084;5.228;2022-08-21T10:51:28;101672.0;;;24.01;56.73
63956;BME280;50131;52.084;5.228;2022-08-21T10:53:19;101670.0;;;23.9;55.88
63956;BME280;50131;52.084;5.228;2022-08-21T10:55:08;101667.0;;;23.94;56.48
63956;BME280;50131;52.084;5.228;2022-08-21T10:58:36;101666.0;;;24.03;56.43
63956;BME280;50131;52.084;5.228;2022-08-21T11:00:19;101669.0;;;24.17;56.1
63956;BME280;50131;52.084;5.228;2022-08-21T11:02:02;101670.0;;;24.27;54.55
63956;BME280;50131;52.084;5.228;2022-08-21T11:03:46;101665.0;;;24.35;53.18
63956;BME280;50131;52.084;5.228;2022-08-21T11:07:12;101671.0;;;24.42;53.12
63956;BME280;50131;52.084;5.228;2022-08-21T11:08:59;101662.0;;;24.42;53.21
63956;BME280;50131;52.084;5.228;2022-08-21T11:10:49;101662.0;;;24.5;54.35
63956;BME280;50131;52.084;5.228;2022-08-21T11:12:34;101657.0;;;24.61;51.75
63956;BME280;50131;52.084;5.228;2022-08-21T11:14:21;101653.0;;;24.65;52.51
63956;BME280;50131;52.084;5.228;2022-08-21T11:16:12;101651.0;;;24.79;53.66
63956;BME280;50131;52.084;5.228;2022-08-21T11:19:59;101659.0;;;24.86;51.67
63956;BME280;50131;52.084;5.228;2022-08-21T11:21:50;101657.0;;;24.8;50.68
63956;BME280;50131;52.084;5.228;2022-08-21T11:23:36;101651.0;;;24.85;51.52
63956;BME280;50131;52.084;5.228;2022-08-21T11:25:21;101662.0;;;24.9;52.73
63956;BME280;50131;52.084;5.228;2022-08-21T11:27:06;101655.0;;;24.84;51.17
63956;BME280;50131;52.084;5.228;2022-08-21T11:29:00;101653.0;;;24.98;52.52
63956;BME280;50131;52.084;5.228;2022-08-21T11:30:48;101657.0;;;25.09;50.43
63956;BME280;50131;52.084;5.228;2022-08-21T11:34:48;101661.0;;;25.22;48.62
63956;BME280;50131;52.084;5.228;2022-08-21T11:36:35;101657.0;;;25.2;48.38
63956;BME280;50131;52.084;5.228;2022-08-21T11:38:26;101652.0;;;25.19;48.71
63956;BME280;50131;52.084;5.228;2022-08-21T11:40:14;101661.0;;;25.08;48.92
63956;BME280;50131;52.084;5.228;2022-08-21T11:42:03;101659.0;;;25.09;49.64
63956;BME280;50131;52.084;5.228;2022-08-21T11:43:54;101658.0;;;25.12;50.31
63956;BME280;50131;52.084;5.228;2022-08-21T11:45:41;101667.0;;;25.03;50.6
63956;BME280;50131;52.084;5.228;2022-08-21T11:47:33;101670.0;;;25.0;52.22
63956;BME280;50131;52.084;5.228;2022-08-21T11:49:35;101677.0;;;24.95;52.45
63956;BME280;50131;52.084;5.228;2022-08-21T11:53:21;101675.0;;;24.98;52.21
63956;BME280;50131;52.084;5.228;2022-08-21T11:55:09;101681.0;;;24.91;52.71
63956;BME280;50131;52.084;5.228;2022-08-21T11:56:55;101682.0;;;24.87;53.14